x

8570283 - Ocean City Inlet, Md (ocim2) Weather Station

4:54pm - Tue 16th Oct 2018 All times are EDT. -4 hours from GMT.

  • Wind
    5mph, 6mph gusts
  • Sea Temp 71°f
  • Air Temp 60°f
  • Sea Pressure 1020.7mb
  • 8570283 - Ocean City Inlet, Md
  • 8570283 - Ocean City Inlet, Md

More Historic Weather Station data

Upgrade to MSW Pro to gain access to the past 30 days of data for over 8000 Wavebouys and Weather Stations around the globe.

Join

Comparision Forecast

View Surf forecast
   
Tue 10/16 4:54pm 5 6 mph 1020.7mb 71f 60f
4:48pm 5 6 mph 1020.6mb - -
4:42pm 5 7 mph 1020.6mb 71f 60f
4:36pm 3 3 mph 1020.5mb 71f 60f
4:30pm 3 5 mph 1020.5mb 71f 60f
4:24pm 3 5 mph 1020.6mb 71f 60f
4:18pm 5 6 mph - - -
4:12pm 6 7 mph 1021mb 71f 60f
4:06pm 5 7 mph 1020.9mb 71f 60f
4:00pm 3 5 mph 1020.9mb 71f 60f
3:54pm 3 6 mph 1020.7mb 71f 60f
3:48pm 5 7 mph - - -
3:42pm  -  2 mph 1020.7mb 71f 60f
3:36pm  -  1 mph 1020.8mb 71f 60f
3:30pm  -  2 mph 1020.7mb 71f 60f
3:24pm 3 6 mph 1021mb 71f 60f
3:18pm 5 7 mph 1021.2mb 71f 60f
3:12pm 2 6 mph 1021.3mb 71f 60f
3:06pm 1 5 mph 1021.4mb 71f 59f
3:00pm 3 6 mph 1021.6mb 71f 59f
2:54pm 2 3 mph 1021.6mb 71f 59f
2:48pm 3 6 mph 1021.4mb 71f 59f
2:42pm 5 6 mph 1021.3mb 71f 59f
2:36pm 6 9 mph 1021.5mb 71f 59f
2:30pm 6 8 mph 1021.4mb 71f 59f
2:24pm 6 8 mph 1021.3mb 71f 58f
2:18pm 5 8 mph 1021.3mb 71f 58f
2:12pm 2 3 mph 1021.4mb 71f 58f
2:06pm 5 6 mph 1021.5mb 71f 58f
2:00pm 7 8 mph 1021.5mb 71f 58f
1:54pm 8 9 mph 1021.6mb 71f 58f
1:48pm 9 11 mph 1021.8mb 71f -
1:42pm 5 7 mph 1021.8mb 71f 58f
1:36pm 6 7 mph 1021.9mb 71f 58f
1:30pm 8 9 mph 1022mb 71f 59f
1:24pm 6 8 mph 1022.1mb 71f 58f
1:18pm 6 8 mph 1022.3mb 71f -
1:12pm 7 9 mph 1022.2mb 71f 58f
1:06pm 6 9 mph 1022.3mb 71f 58f
1:00pm 7 11 mph 1022.4mb 71f 59f
12:18pm 7 10 mph 1023.1mb 71f 58f
12:12pm 6 8 mph 1023.3mb 70f 58f
12:06pm 8 10 mph 1023.2mb 70f 58f
12:00pm 8 10 mph 1023.4mb 70f 58f
11:54am 9 11 mph 1023.4mb 70f 58f
11:48am 7 9 mph 1023.4mb 70f 58f
11:42am 9 11 mph 1023.3mb 70f 58f
11:36am 10 14 mph 1023.2mb 70f 58f
11:30am 9 13 mph 1023.4mb 70f 58f
11:24am 10 17 mph 1023.3mb 70f 58f
11:18am 13 16 mph 1023.3mb 70f -
11:12am 11 16 mph 1023.2mb 70f 58f
11:06am 11 14 mph 1023.2mb 69f 57f
11:00am 13 16 mph 1023.1mb 68f 57f
10:54am 10 14 mph 1023.2mb 67f 57f
10:48am 14 17 mph 1023.2mb 67f 57f
10:42am 11 15 mph 1023.4mb 67f 58f
10:36am 13 17 mph 1023.6mb 67f 57f
10:30am 14 17 mph 1023.6mb 67f 57f
10:24am 15 18 mph 1023.4mb 67f 57f
10:18am 14 17 mph 1023.4mb 67f 57f
10:12am 15 20 mph 1023.4mb 67f 58f
10:06am 17 22 mph 1023.4mb 67f 57f
10:00am 17 22 mph 1023.4mb 67f 57f
9:54am 16 21 mph 1023.5mb 67f 57f
9:48am 16 20 mph 1023.5mb 67f -
9:42am 18 21 mph 1023.3mb 67f 57f
9:36am 17 23 mph 1023.3mb 67f 58f
9:30am 17 23 mph 1023.1mb 67f 58f
9:24am 17 21 mph 1023.1mb 67f 58f
9:18am 17 23 mph 1023mb 67f 58f
9:12am 18 23 mph 1023.1mb 67f 58f
9:06am 16 20 mph 1022.8mb 67f 59f
9:00am 18 22 mph 1022.7mb 67f 59f
8:48am 14 18 mph 1022.5mb 67f 59f
8:42am 15 21 mph 1022.3mb 67f 59f
8:36am 14 16 mph 1022.4mb 67f 59f
8:30am 17 22 mph 1022.7mb 67f 60f
8:24am 13 17 mph 1022.4mb 67f 60f
8:18am 11 15 mph 1022mb 67f 60f
8:12am 13 16 mph 1022mb 68f 60f
8:06am 11 16 mph 1021.7mb 68f 60f
8:00am 11 14 mph 1021.6mb 68f 60f
7:54am 13 17 mph 1021.5mb 68f 60f
7:48am 14 17 mph 1021.4mb 68f 60f
7:42am 15 18 mph 1021.4mb 68f 60f
7:36am 16 21 mph 1021.2mb 68f 60f
7:30am 15 18 mph 1021mb 68f 61f
7:24am 14 18 mph 1020.8mb 68f 61f
7:18am 14 18 mph 1020.7mb 68f 61f
7:12am 15 18 mph 1020.8mb 68f 61f
7:06am 15 18 mph 1020.7mb 68f 61f
7:00am 14 17 mph 1020.5mb 68f 62f
6:54am 14 17 mph 1020.4mb 68f 62f
6:48am 13 16 mph 1020.4mb 68f 62f
6:42am 13 17 mph 1020.4mb 68f 62f
6:36am 10 15 mph 1020.1mb 68f 62f
6:30am 11 14 mph 1020.1mb 68f 62f
6:24am 14 16 mph 1020.1mb 68f 63f
6:18am 13 16 mph 1020mb - -
6:12am 13 15 mph 1019.9mb 68f 63f
6:06am 13 18 mph 1020.1mb 68f 63f
6:00am 11 16 mph 1020.1mb 68f 63f
5:54am 15 18 mph 1020mb 68f 63f
5:48am 16 22 mph 1019.8mb 68f 63f
5:42am 15 20 mph 1019.7mb 68f 63f
5:36am 16 20 mph 1019.4mb 69f 63f
5:30am 20 24 mph 1019.5mb 69f 63f
5:24am 16 21 mph 1019.4mb 69f 64f
5:18am 15 18 mph 1019.5mb 69f 64f
5:12am 16 21 mph 1019.4mb 69f 64f
5:06am 16 18 mph 1019.2mb 69f 64f
5:00am 15 18 mph 1019mb 69f 64f
4:54am 15 20 mph 1019mb 69f 64f
4:48am 15 18 mph 1018.8mb 69f -
4:42am 16 21 mph 1018.6mb 69f 64f
4:36am 20 23 mph 1018.6mb 69f 65f
4:30am 16 20 mph 1018.7mb 69f 64f
4:24am 17 22 mph 1018.6mb 69f 65f
4:18am 16 20 mph 1018.5mb 69f 64f
4:12am 13 15 mph 1018.5mb 69f 64f
4:06am 13 15 mph 1018.5mb 69f 65f
4:00am 14 18 mph 1018.4mb 69f 65f
3:12am 17 21 mph 1018.4mb 68f 64f
3:06am 17 22 mph 1018.2mb 68f 65f
3:00am 21 25 mph 1017.9mb 69f 65f
2:54am 26 34 mph 1017.6mb 69f 67f
2:48am 11 14 mph 1016.9mb 70f 72f
2:42am 11 16 mph 1016.7mb 70f 74f
2:36am 8 10 mph 1016.7mb 71f 74f
2:30am 10 14 mph 1016.8mb 71f 74f
2:24am 13 17 mph 1016.6mb 71f 74f
2:18am 10 14 mph 1016.5mb 71f 74f
2:12am 11 16 mph 1016.4mb 71f 74f
2:06am 11 16 mph 1016.3mb 71f 74f
2:00am 14 20 mph 1016.2mb 71f 74f
1:54am 15 22 mph 1015.9mb 71f 75f
1:48am 16 21 mph 1015.8mb 71f 75f
1:42am 16 21 mph 1015.8mb 71f 75f
1:36am 17 26 mph 1015.5mb 71f 75f
1:30am 18 23 mph 1015.4mb 70f 75f
1:24am 21 26 mph 1015.1mb 69f 75f
1:18am 20 24 mph 1015.1mb 69f 75f
1:12am 20 24 mph 1015.1mb 69f 75f
1:06am 20 24 mph 1015.2mb 69f 75f
1:00am 20 29 mph 1015.4mb 69f 75f
12:54am 18 23 mph 1015.6mb 69f 75f
12:48am 23 32 mph 1015.5mb 69f 75f
12:42am 21 24 mph 1015.7mb 69f 75f
12:36am 20 25 mph 1015.8mb 69f 75f
12:30am 16 28 mph 1015.9mb 69f 75f
12:24am 11 15 mph 1016mb 69f 73f
12:18am 11 15 mph 1016.1mb 69f 72f
12:12am 11 15 mph 1016mb 69f 72f
12:06am 13 14 mph 1015.9mb 69f 72f
12:00am 14 16 mph 1015.9mb 69f 73f
Mon 10/15 11:54pm 13 15 mph 1016mb 69f 73f
11:48pm 14 16 mph 1016mb 69f 73f
11:42pm 14 18 mph 1016mb 69f 73f
11:36pm 14 21 mph 1016.2mb 69f 73f
11:30pm 13 16 mph 1016.3mb 69f 73f
11:24pm 13 16 mph 1016.2mb 69f 72f
11:18pm 15 17 mph 1016.2mb 69f 73f
11:12pm 14 16 mph 1016.2mb 69f 73f
11:06pm 13 17 mph 1016.2mb 70f 73f
11:00pm 14 17 mph 1016.2mb 70f 73f
10:54pm 14 17 mph 1016.2mb 70f 73f
10:48pm 17 22 mph - - -
10:42pm 15 21 mph 1016.4mb 70f 74f
10:36pm 15 20 mph 1016.5mb 70f 74f
10:30pm 15 20 mph 1016.5mb 70f 74f
10:24pm 14 22 mph 1016.5mb 70f 74f
10:18pm 14 20 mph 1016.5mb 70f 74f
10:12pm 13 16 mph 1016.6mb 70f 74f
10:06pm 14 16 mph 1016.6mb 70f 74f
10:00pm 15 20 mph 1016.6mb 70f 74f
9:42pm 16 22 mph 1016.5mb 70f 74f
9:36pm 17 22 mph 1016.5mb 70f 74f
9:30pm 17 23 mph 1016.5mb 71f 75f
9:24pm 18 26 mph 1016.4mb 71f 75f
9:18pm 18 24 mph 1016.3mb 71f 74f
9:12pm 17 24 mph 1016.4mb 71f 74f
9:06pm 15 20 mph 1016.4mb 71f 74f
9:00pm 15 21 mph 1016.2mb 71f 73f
7:42pm 15 18 mph 1016.5mb 71f 72f
7:36pm 15 22 mph 1016.5mb 71f 72f
7:30pm 15 18 mph 1016.7mb 71f 72f
7:24pm 14 18 mph 1016.8mb 71f 72f
7:18pm 13 16 mph 1016.9mb 71f 72f
7:12pm 14 17 mph 1017mb 71f 73f
7:06pm 15 18 mph 1016.9mb 71f 73f
7:00pm 18 23 mph 1016.8mb 71f 73f
6:54pm 18 22 mph 1016.8mb 71f 73f
6:48pm 18 22 mph 1016.7mb - -
6:42pm 20 23 mph 1016.7mb 71f -
6:36pm 20 22 mph 1016.6mb 71f 73f
6:30pm 18 23 mph 1016.6mb 71f 73f
6:24pm 17 21 mph 1016.7mb 71f 73f
6:18pm 17 21 mph 1016.7mb 71f 73f
6:12pm 17 22 mph 1016.8mb 71f 73f
6:06pm 17 20 mph 1016.8mb 71f 73f
6:00pm 16 20 mph 1017mb 72f 73f
4:54pm 15 17 mph 1017.6mb 71f 74f
4:48pm 14 16 mph 1017.6mb 71f 76f
4:42pm 14 17 mph 1017.7mb 71f 75f
4:36pm 15 20 mph 1017.6mb 71f 77f
4:30pm 14 16 mph 1017.6mb 71f 77f
4:24pm 11 15 mph 1017.7mb 71f 77f
4:18pm 13 17 mph 1017.7mb 71f 77f
4:12pm 14 20 mph 1017.8mb 71f 77f
4:06pm 13 18 mph 1017.8mb 71f 77f
4:00pm 13 20 mph 1017.8mb 71f 77f
3:54pm 14 20 mph 1017.8mb 71f 77f
3:48pm 14 17 mph 1017.9mb 71f -
3:42pm 17 22 mph 1017.9mb 71f 77f
3:36pm 11 16 mph 1018mb 71f 77f
3:30pm 11 14 mph 1018mb 71f 76f
3:24pm 13 16 mph 1018.1mb 71f 76f
3:18pm 11 15 mph 1018.1mb 71f -
3:12pm 14 21 mph 1018.1mb 71f 76f
3:06pm 16 20 mph 1018.1mb 71f 76f
3:00pm 17 21 mph 1018.2mb 71f 76f
2:54pm 18 23 mph 1018.1mb 71f 76f
2:48pm 16 20 mph 1018.1mb 71f 76f
2:42pm 20 25 mph 1018mb 71f 77f
2:36pm 21 25 mph 1018.1mb 71f 77f
2:30pm 20 26 mph 1018.1mb 71f 77f
2:24pm 15 21 mph 1018.2mb 71f 76f
2:18pm 14 18 mph 1018.3mb 71f 76f
2:12pm 18 22 mph 1018.3mb 71f 76f
2:06pm 21 25 mph 1018.3mb 71f 76f
2:00pm 17 23 mph 1018.2mb 71f 76f
1:54pm 16 21 mph 1018.4mb 71f 74f
1:48pm 17 20 mph 1018.6mb 71f 73f
1:42pm 15 20 mph 1018.7mb 71f 74f
1:36pm 16 17 mph 1018.8mb 71f 73f
1:30pm 16 18 mph 1019mb 71f 73f
1:24pm 16 18 mph 1019mb 71f 72f
1:18pm 15 17 mph 1019mb 71f 72f
1:12pm 16 20 mph 1019mb 71f 72f
1:06pm 17 20 mph 1019.1mb 71f 71f
1:00pm 17 20 mph 1019.2mb 71f 71f
12:54pm 16 18 mph 1019.3mb 70f 72f
12:48pm 18 21 mph 1019.4mb 70f 72f
12:42pm 18 23 mph 1019.5mb 70f 72f
12:36pm 18 22 mph 1019.6mb 70f 72f
12:30pm 17 21 mph 1019.7mb 70f 72f
12:24pm 18 22 mph 1019.9mb 70f 72f
12:18pm 17 21 mph 1020.1mb 70f -
12:12pm 18 22 mph 1020.2mb 70f 72f
12:06pm 18 22 mph 1020.2mb 70f 72f
12:00pm 21 26 mph 1020.2mb 70f 72f
11:54am 20 25 mph 1020.2mb 70f 72f
11:48am 20 23 mph 1020.2mb 70f 72f
11:42am 18 24 mph 1020.2mb 70f 71f
11:36am 20 26 mph 1020.2mb 70f 71f
11:30am 17 21 mph 1020.3mb 70f 71f
11:24am 16 21 mph 1020.5mb 69f 70f
11:18am 16 21 mph 1020.4mb 69f 70f
11:12am 16 18 mph 1020.4mb 69f 70f
11:06am 15 18 mph 1020.5mb 69f 70f
11:00am 14 17 mph 1020.7mb 68f 69f
10:54am 14 16 mph 1020.9mb 67f 69f
10:48am 13 17 mph - - -
10:42am 11 14 mph 1020.9mb 66f 68f
10:36am 11 14 mph 1021mb 66f 69f
10:30am 11 15 mph 1021.1mb 66f 68f
10:24am 11 14 mph 1021.1mb 66f 68f
10:18am 9 10 mph 1021.3mb 66f 67f
10:12am 10 16 mph 1021.2mb 66f 68f
10:06am 13 16 mph 1021.3mb 66f 69f
10:00am 17 21 mph 1021.4mb 66f 69f
9:54am 15 21 mph 1021.5mb 66f 68f
9:48am 16 20 mph 1021.4mb 66f 68f
9:42am 17 20 mph 1021.4mb 66f 67f
9:36am 15 18 mph 1021.7mb 66f 66f
9:30am 14 17 mph 1021.7mb 66f 65f